Check out our new PWSWeather beta!
PWSweather.com
Personal Weather Stations
Station Observations

SkegnessGB

Lat: 53.147585, Lon: 0.345774

Elevation: 18

Station Type: Fine Offset WH3080

http://www.skegnessweather.info/

High Low Average
Temperature 48.7°F9.3°C 39.2°F4.0°C 43.2°F6.2°C
Dew Point 40.2°F4.6°C 35.7°F2.1°C 37.6°F3.1°C
Winds 11.1 mph 17.9 kmh 0.9 mph 1.4 kmh 6.0 mph SW9.7 kmh SW
Wind Gusts 15.0 mph24.1 kmh 2.5 mph4.0 kmh 7.0 mph11.3 kmh
Humidity 90% 67% 81%
Pressure 29.76 in1007.8 mb 29.32 in992.9 mb -
Precipitation 0.00 in0.0 mm - -
Hour Temp Dew Point Humidity Winds Wind Gusts Pressure Precip Precip Rate Daily Precip Total
12:00 AM 43.3°F6.3°C 39.7°F4.3°C 87% 4.6 mph W7.4 kmh W 6.6 mph10.6 kmh 29.32 in992.9 mb 0.00 in0.0 mm 0.00 in0.0 mm 0.00 in0.0 mm
12:10 AM 43.3°F6.3°C 39.7°F4.3°C 87% 3.0 mph NW4.8 kmh NW 4.2 mph6.8 kmh 29.33 in993.2 mb 0.00 in0.0 mm 0.00 in0.0 mm 0.00 in0.0 mm
12:20 AM 43.2°F6.2°C 39.6°F4.2°C 87% 2.8 mph WSW4.5 kmh WSW 4.2 mph6.8 kmh 29.33 in993.2 mb 0.00 in0.0 mm 0.00 in0.0 mm 0.00 in0.0 mm
12:30 AM 42.6°F5.9°C 38.7°F3.7°C 86% 3.1 mph SW5.0 kmh SW 3.4 mph5.5 kmh 29.33 in993.2 mb 0.00 in0.0 mm 0.00 in0.0 mm 0.00 in0.0 mm
12:40 AM 42.1°F5.6°C 38.2°F3.4°C 86% 1.3 mph WSW2.1 kmh WSW 2.5 mph4.0 kmh 29.34 in993.6 mb 0.00 in0.0 mm 0.00 in0.0 mm 0.00 in0.0 mm
12:50 AM 41.5°F5.3°C 37.7°F3.2°C 86% 0.9 mph SW1.4 kmh SW 2.5 mph4.0 kmh 29.35 in993.9 mb 0.00 in0.0 mm 0.00 in0.0 mm 0.00 in0.0 mm
01:00 AM 41.2°F5.1°C 37.3°F2.9°C 86% 2.8 mph SW4.5 kmh SW 4.2 mph6.8 kmh 29.35 in993.9 mb 0.00 in0.0 mm 0.00 in0.0 mm 0.00 in0.0 mm
01:10 AM 41.2°F5.1°C 37.3°F2.9°C 86% 4.3 mph SW6.9 kmh SW 4.2 mph6.8 kmh 29.35 in993.9 mb 0.00 in0.0 mm 0.00 in0.0 mm 0.00 in0.0 mm
01:20 AM 41.7°F5.4°C 37.8°F3.2°C 86% 4.3 mph SSW6.9 kmh SSW 4.2 mph6.8 kmh 29.35 in993.9 mb 0.00 in0.0 mm 0.00 in0.0 mm 0.00 in0.0 mm
01:30 AM 41.4°F5.2°C 37.5°F3.1°C 86% 3.8 mph WSW6.1 kmh WSW 4.9 mph7.9 kmh 29.35 in993.9 mb 0.00 in0.0 mm 0.00 in0.0 mm 0.00 in0.0 mm
01:40 AM 41.2°F5.1°C 37.3°F2.9°C 86% 3.7 mph SW6.0 kmh SW 4.2 mph6.8 kmh 29.36 in994.2 mb 0.00 in0.0 mm 0.00 in0.0 mm 0.00 in0.0 mm
01:50 AM 41.0°F5.0°C 37.1°F2.8°C 86% 3.6 mph SW5.8 kmh SW 4.9 mph7.9 kmh 29.37 in994.6 mb 0.00 in0.0 mm 0.00 in0.0 mm 0.00 in0.0 mm
02:00 AM 40.5°F4.7°C 36.6°F2.6°C 86% 2.7 mph SW4.3 kmh SW 4.2 mph6.8 kmh 29.37 in994.6 mb 0.00 in0.0 mm 0.00 in0.0 mm 0.00 in0.0 mm
02:10 AM 40.3°F4.6°C 36.4°F2.4°C 86% 3.1 mph SSW5.0 kmh SSW 4.2 mph6.8 kmh 29.37 in994.6 mb 0.00 in0.0 mm 0.00 in0.0 mm 0.00 in0.0 mm
02:20 AM 39.9°F4.4°C 36.1°F2.3°C 86% 3.4 mph S5.5 kmh S 4.2 mph6.8 kmh 29.38 in994.9 mb 0.00 in0.0 mm 0.00 in0.0 mm 0.00 in0.0 mm
02:30 AM 39.9°F4.4°C 36.1°F2.3°C 86% 3.1 mph S5.0 kmh S 3.4 mph5.5 kmh 29.39 in995.3 mb 0.00 in0.0 mm 0.00 in0.0 mm 0.00 in0.0 mm
02:40 AM 39.9°F4.4°C 36.1°F2.3°C 86% 3.4 mph SSW5.5 kmh SSW 4.2 mph6.8 kmh 29.39 in995.3 mb 0.00 in0.0 mm 0.00 in0.0 mm 0.00 in0.0 mm
02:50 AM 40.3°F4.6°C 36.7°F2.6°C 87% 3.5 mph WSW5.6 kmh WSW 4.2 mph6.8 kmh 29.40 in995.6 mb 0.00 in0.0 mm 0.00 in0.0 mm 0.00 in0.0 mm
03:00 AM 40.5°F4.7°C 36.9°F2.7°C 87% 3.4 mph SW5.5 kmh SW 4.2 mph6.8 kmh 29.39 in995.3 mb 0.00 in0.0 mm 0.00 in0.0 mm 0.00 in0.0 mm
03:10 AM 40.5°F4.7°C 36.9°F2.7°C 87% 3.0 mph NNW4.8 kmh NNW 4.2 mph6.8 kmh 29.40 in995.6 mb 0.00 in0.0 mm 0.00 in0.0 mm 0.00 in0.0 mm
03:20 AM 40.3°F4.6°C 36.7°F2.6°C 87% 2.9 mph S4.7 kmh S 4.2 mph6.8 kmh 29.40 in995.6 mb 0.00 in0.0 mm 0.00 in0.0 mm 0.00 in0.0 mm
03:30 AM 40.5°F4.7°C 36.9°F2.7°C 87% 3.3 mph SW5.3 kmh SW 4.2 mph6.8 kmh 29.41 in995.9 mb 0.00 in0.0 mm 0.00 in0.0 mm 0.00 in0.0 mm
03:40 AM 40.5°F4.7°C 36.9°F2.7°C 87% 4.5 mph SW7.2 kmh SW 5.9 mph9.5 kmh 29.41 in995.9 mb 0.00 in0.0 mm 0.00 in0.0 mm 0.00 in0.0 mm
03:50 AM 40.5°F4.7°C 36.9°F2.7°C 87% 4.3 mph SSW6.9 kmh SSW 5.9 mph9.5 kmh 29.42 in996.3 mb 0.00 in0.0 mm 0.00 in0.0 mm 0.00 in0.0 mm
04:00 AM 40.3°F4.6°C 36.7°F2.6°C 87% 3.5 mph WSW5.6 kmh WSW 4.2 mph6.8 kmh 29.42 in996.3 mb 0.00 in0.0 mm 0.00 in0.0 mm 0.00 in0.0 mm
04:10 AM 40.1°F4.5°C 36.5°F2.5°C 87% 3.4 mph SW5.5 kmh SW 4.2 mph6.8 kmh 29.42 in996.3 mb 0.00 in0.0 mm 0.00 in0.0 mm 0.00 in0.0 mm
04:20 AM 39.9°F4.4°C 36.4°F2.4°C 87% 2.8 mph SW4.5 kmh SW 4.2 mph6.8 kmh 29.42 in996.3 mb 0.00 in0.0 mm 0.00 in0.0 mm 0.00 in0.0 mm
04:30 AM 39.9°F4.4°C 36.4°F2.4°C 87% 3.7 mph SSW6.0 kmh SSW 5.9 mph9.5 kmh 29.43 in996.6 mb 0.00 in0.0 mm 0.00 in0.0 mm 0.00 in0.0 mm
04:40 AM 39.9°F4.4°C 36.4°F2.4°C 87% 4.6 mph SSW7.4 kmh SSW 4.9 mph7.9 kmh 29.44 in997.0 mb 0.00 in0.0 mm 0.00 in0.0 mm 0.00 in0.0 mm
04:50 AM 39.9°F4.4°C 36.4°F2.4°C 87% 4.4 mph SW7.1 kmh SW 4.2 mph6.8 kmh 29.44 in997.0 mb 0.00 in0.0 mm 0.00 in0.0 mm 0.00 in0.0 mm
05:00 AM 39.7°F4.3°C 36.2°F2.3°C 87% 4.7 mph S7.6 kmh S 5.9 mph9.5 kmh 29.45 in997.3 mb 0.00 in0.0 mm 0.00 in0.0 mm 0.00 in0.0 mm
05:10 AM 39.4°F4.1°C 35.8°F2.1°C 87% 3.5 mph S5.6 kmh S 3.4 mph5.5 kmh 29.45 in997.3 mb 0.00 in0.0 mm 0.00 in0.0 mm 0.00 in0.0 mm
05:20 AM 39.2°F4.0°C 35.7°F2.1°C 87% 2.8 mph SW4.5 kmh SW 3.4 mph5.5 kmh 29.45 in997.3 mb 0.00 in0.0 mm 0.00 in0.0 mm 0.00 in0.0 mm
05:30 AM 39.6°F4.2°C 36.0°F2.2°C 87% 2.6 mph SSW4.2 kmh SSW 4.2 mph6.8 kmh 29.46 in997.6 mb 0.00 in0.0 mm 0.00 in0.0 mm 0.00 in0.0 mm
05:40 AM 40.1°F4.5°C 36.8°F2.7°C 88% 3.9 mph SSW6.3 kmh SSW 4.2 mph6.8 kmh 29.46 in997.6 mb 0.00 in0.0 mm 0.00 in0.0 mm 0.00 in0.0 mm
05:50 AM 40.5°F4.7°C 37.2°F2.9°C 88% 3.9 mph WSW6.3 kmh WSW 4.9 mph7.9 kmh 29.47 in998.0 mb 0.00 in0.0 mm 0.00 in0.0 mm 0.00 in0.0 mm
06:00 AM 40.8°F4.9°C 37.5°F3.1°C 88% 3.9 mph S6.3 kmh S 4.9 mph7.9 kmh 29.47 in998.0 mb 0.00 in0.0 mm 0.00 in0.0 mm 0.00 in0.0 mm
06:10 AM 41.0°F5.0°C 38.0°F3.3°C 89% 4.0 mph N6.4 kmh N 3.4 mph5.5 kmh 29.47 in998.0 mb 0.00 in0.0 mm 0.00 in0.0 mm 0.00 in0.0 mm
06:20 AM 41.0°F5.0°C 38.0°F3.3°C 89% 3.6 mph S5.8 kmh S 5.9 mph9.5 kmh 29.48 in998.3 mb 0.00 in0.0 mm 0.00 in0.0 mm 0.00 in0.0 mm
06:30 AM 41.0°F5.0°C 38.0°F3.3°C 89% 4.0 mph SW6.4 kmh SW 4.9 mph7.9 kmh 29.49 in998.6 mb 0.00 in0.0 mm 0.00 in0.0 mm 0.00 in0.0 mm
06:40 AM 41.0°F5.0°C 38.0°F3.3°C 89% 3.9 mph SSW6.3 kmh SSW 4.2 mph6.8 kmh 29.49 in998.6 mb 0.00 in0.0 mm 0.00 in0.0 mm 0.00 in0.0 mm
06:50 AM 41.0°F5.0°C 38.0°F3.3°C 89% 5.3 mph WSW8.5 kmh WSW 6.6 mph10.6 kmh 29.50 in999.0 mb 0.00 in0.0 mm 0.00 in0.0 mm 0.00 in0.0 mm
07:00 AM 41.0°F5.0°C 38.0°F3.3°C 89% 5.8 mph WSW9.3 kmh WSW 6.6 mph10.6 kmh 29.50 in999.0 mb 0.00 in0.0 mm 0.00 in0.0 mm 0.00 in0.0 mm
07:10 AM 41.7°F5.4°C 38.7°F3.7°C 89% 6.2 mph WNW10.0 kmh WNW 6.6 mph10.6 kmh 29.51 in999.3 mb 0.00 in0.0 mm 0.00 in0.0 mm 0.00 in0.0 mm
07:20 AM 41.9°F5.5°C 39.2°F4.0°C 90% 5.3 mph WSW8.5 kmh WSW 6.6 mph10.6 kmh 29.51 in999.3 mb 0.00 in0.0 mm 0.00 in0.0 mm 0.00 in0.0 mm
07:30 AM 42.3°F5.7°C 39.5°F4.2°C 90% 5.6 mph SSW9.0 kmh SSW 6.6 mph10.6 kmh 29.52 in999.7 mb 0.00 in0.0 mm 0.00 in0.0 mm 0.00 in0.0 mm
07:40 AM 42.4°F5.8°C 39.7°F4.3°C 90% 5.5 mph SW8.9 kmh SW 7.6 mph12.2 kmh 29.53 in1000.0 mb 0.00 in0.0 mm 0.00 in0.0 mm 0.00 in0.0 mm
07:50 AM 42.6°F5.9°C 39.9°F4.4°C 90% 5.9 mph SSW9.5 kmh SSW 5.9 mph9.5 kmh 29.53 in1000.0 mb 0.00 in0.0 mm 0.00 in0.0 mm 0.00 in0.0 mm
08:00 AM 42.4°F5.8°C 39.7°F4.3°C 90% 6.6 mph S10.6 kmh S 8.4 mph13.5 kmh 29.54 in1000.3 mb 0.00 in0.0 mm 0.00 in0.0 mm 0.00 in0.0 mm
08:10 AM 42.4°F5.8°C 39.4°F4.1°C 89% 6.3 mph S10.1 kmh S 8.4 mph13.5 kmh 29.54 in1000.3 mb 0.00 in0.0 mm 0.00 in0.0 mm 0.00 in0.0 mm
08:20 AM 42.6°F5.9°C 39.6°F4.2°C 89% 7.4 mph SSW11.9 kmh SSW 7.6 mph12.2 kmh 29.54 in1000.3 mb 0.00 in0.0 mm 0.00 in0.0 mm 0.00 in0.0 mm
08:30 AM 42.6°F5.9°C 39.6°F4.2°C 89% 6.4 mph SW10.3 kmh SW 7.6 mph12.2 kmh 29.55 in1000.7 mb 0.00 in0.0 mm 0.00 in0.0 mm 0.00 in0.0 mm
08:40 AM 42.8°F6.0°C 39.5°F4.2°C 88% 6.2 mph SW10.0 kmh SW 8.4 mph13.5 kmh 29.56 in1001.0 mb 0.00 in0.0 mm 0.00 in0.0 mm 0.00 in0.0 mm
08:50 AM 43.0°F6.1°C 39.7°F4.3°C 88% 6.6 mph SSW10.6 kmh SSW 7.6 mph12.2 kmh 29.56 in1001.0 mb 0.00 in0.0 mm 0.00 in0.0 mm 0.00 in0.0 mm
09:00 AM 43.2°F6.2°C 39.6°F4.2°C 87% 6.9 mph WSW11.1 kmh WSW 9.1 mph14.6 kmh 29.56 in1001.0 mb 0.00 in0.0 mm 0.00 in0.0 mm 0.00 in0.0 mm
09:10 AM 43.5°F6.4°C 39.9°F4.4°C 87% 3.3 mph SW5.3 kmh SW 4.2 mph6.8 kmh 29.56 in1001.0 mb 0.00 in0.0 mm 0.00 in0.0 mm 0.00 in0.0 mm
09:20 AM 43.7°F6.5°C 39.8°F4.3°C 86% 6.5 mph SW10.5 kmh SW 9.1 mph14.6 kmh 29.57 in1001.4 mb 0.00 in0.0 mm 0.00 in0.0 mm 0.00 in0.0 mm
09:30 AM 44.1°F6.7°C 40.1°F4.5°C 86% 6.5 mph SSW10.5 kmh SSW 6.6 mph10.6 kmh 29.57 in1001.4 mb 0.00 in0.0 mm 0.00 in0.0 mm 0.00 in0.0 mm
09:40 AM 44.4°F6.9°C 40.2°F4.6°C 85% 8.7 mph SW14.0 kmh SW 11.8 mph19.0 kmh 29.58 in1001.7 mb 0.00 in0.0 mm 0.00 in0.0 mm 0.00 in0.0 mm
09:50 AM 44.6°F7.0°C 38.8°F3.8°C 80% 11.1 mph SSW17.9 kmh SSW 15.0 mph24.1 kmh 29.58 in1001.7 mb 0.00 in0.0 mm 0.00 in0.0 mm 0.00 in0.0 mm
10:00 AM 44.8°F7.1°C 38.7°F3.7°C 79% 11.0 mph W17.7 kmh W 15.0 mph24.1 kmh 29.59 in1002.0 mb 0.00 in0.0 mm 0.00 in0.0 mm 0.00 in0.0 mm
10:10 AM 44.6°F7.0°C 38.2°F3.4°C 78% 9.9 mph S15.9 kmh S 11.8 mph19.0 kmh 29.59 in1002.0 mb 0.00 in0.0 mm 0.00 in0.0 mm 0.00 in0.0 mm
10:20 AM 45.0°F7.2°C 38.5°F3.6°C 78% 10.9 mph SSE17.5 kmh SSE 12.5 mph20.1 kmh 29.60 in1002.4 mb 0.00 in0.0 mm 0.00 in0.0 mm 0.00 in0.0 mm
10:30 AM 45.5°F7.5°C 38.7°F3.7°C 77% 7.8 mph SW12.6 kmh SW 8.4 mph13.5 kmh 29.60 in1002.4 mb 0.00 in0.0 mm 0.00 in0.0 mm 0.00 in0.0 mm
10:40 AM 45.7°F7.6°C 38.5°F3.6°C 76% 8.7 mph WSW14.0 kmh WSW 11.8 mph19.0 kmh 29.61 in1002.7 mb 0.00 in0.0 mm 0.00 in0.0 mm 0.00 in0.0 mm
10:50 AM 45.3°F7.4°C 37.9°F3.3°C 75% 7.6 mph SW12.2 kmh SW 9.1 mph14.6 kmh 29.62 in1003.0 mb 0.00 in0.0 mm 0.00 in0.0 mm 0.00 in0.0 mm
11:00 AM 45.3°F7.4°C 37.9°F3.3°C 75% 8.7 mph SSW14.0 kmh SSW 10.8 mph17.4 kmh 29.62 in1003.0 mb 0.00 in0.0 mm 0.00 in0.0 mm 0.00 in0.0 mm
11:10 AM 45.7°F7.6°C 38.2°F3.4°C 75% 8.4 mph SSE13.5 kmh SSE 9.2 mph14.8 kmh 29.62 in1003.0 mb 0.00 in0.0 mm 0.00 in0.0 mm 0.00 in0.0 mm
11:20 AM 46.0°F7.8°C 38.6°F3.7°C 75% 7.7 mph ESE12.4 kmh ESE 8.4 mph13.5 kmh 29.63 in1003.4 mb 0.00 in0.0 mm 0.00 in0.0 mm 0.00 in0.0 mm
11:30 AM 46.9°F8.3°C 39.1°F3.9°C 74% 8.3 mph SW13.4 kmh SW 8.4 mph13.5 kmh 29.62 in1003.0 mb 0.00 in0.0 mm 0.00 in0.0 mm 0.00 in0.0 mm
11:40 AM 46.9°F8.3°C 38.7°F3.7°C 73% 8.2 mph S13.2 kmh S 10.1 mph16.3 kmh 29.63 in1003.4 mb 0.00 in0.0 mm 0.00 in0.0 mm 0.00 in0.0 mm
11:50 AM 46.9°F8.3°C 38.7°F3.7°C 73% 8.2 mph SSW13.2 kmh SSW 9.1 mph14.6 kmh 29.63 in1003.4 mb 0.00 in0.0 mm 0.00 in0.0 mm 0.00 in0.0 mm
12:00 PM 47.1°F8.4°C 38.6°F3.7°C 72% 8.4 mph WSW13.5 kmh WSW 10.1 mph16.3 kmh 29.64 in1003.7 mb 0.00 in0.0 mm 0.00 in0.0 mm 0.00 in0.0 mm
12:10 PM 47.5°F8.6°C 38.9°F3.8°C 72% 6.9 mph SSW11.1 kmh SSW 10.1 mph16.3 kmh 29.64 in1003.7 mb 0.00 in0.0 mm 0.00 in0.0 mm 0.00 in0.0 mm
12:20 PM 47.5°F8.6°C 38.5°F3.6°C 71% 9.2 mph WSW14.8 kmh WSW 10.1 mph16.3 kmh 29.65 in1004.1 mb 0.00 in0.0 mm 0.00 in0.0 mm 0.00 in0.0 mm
12:30 PM 47.3°F8.5°C 38.4°F3.6°C 71% 7.4 mph WSW11.9 kmh WSW 8.4 mph13.5 kmh 29.65 in1004.1 mb 0.00 in0.0 mm 0.00 in0.0 mm 0.00 in0.0 mm
12:40 PM 46.9°F8.3°C 38.0°F3.3°C 71% 8.3 mph WSW13.4 kmh WSW 9.1 mph14.6 kmh 29.65 in1004.1 mb 0.00 in0.0 mm 0.00 in0.0 mm 0.00 in0.0 mm
12:50 PM 47.3°F8.5°C 38.4°F3.6°C 71% 10.2 mph SW16.4 kmh SW 14.3 mph23.0 kmh 29.65 in1004.1 mb 0.00 in0.0 mm 0.00 in0.0 mm 0.00 in0.0 mm
01:00 PM 47.5°F8.6°C 38.5°F3.6°C 71% 8.3 mph SW13.4 kmh SW 9.1 mph14.6 kmh 29.65 in1004.1 mb 0.00 in0.0 mm 0.00 in0.0 mm 0.00 in0.0 mm
01:10 PM 48.2°F9.0°C 38.9°F3.8°C 70% 6.2 mph E10.0 kmh E 10.8 mph17.4 kmh 29.65 in1004.1 mb 0.00 in0.0 mm 0.00 in0.0 mm 0.00 in0.0 mm
01:20 PM 48.6°F9.2°C 39.2°F4.0°C 70% 9.5 mph WSW15.3 kmh WSW 12.5 mph20.1 kmh 29.65 in1004.1 mb 0.00 in0.0 mm 0.00 in0.0 mm 0.00 in0.0 mm
01:30 PM 48.7°F9.3°C 39.0°F3.9°C 69% 10.1 mph SSW16.3 kmh SSW 11.8 mph19.0 kmh 29.65 in1004.1 mb 0.00 in0.0 mm 0.00 in0.0 mm 0.00 in0.0 mm
01:40 PM 48.6°F9.2°C 38.1°F3.4°C 67% 8.4 mph SSW13.5 kmh SSW 9.1 mph14.6 kmh 29.65 in1004.1 mb 0.00 in0.0 mm 0.00 in0.0 mm 0.00 in0.0 mm
01:50 PM 48.0°F8.9°C 38.0°F3.3°C 68% 8.6 mph SW13.8 kmh SW 12.5 mph20.1 kmh 29.66 in1004.4 mb 0.00 in0.0 mm 0.00 in0.0 mm 0.00 in0.0 mm
02:00 PM 47.7°F8.7°C 38.0°F3.3°C 69% 9.3 mph SW15.0 kmh SW 12.5 mph20.1 kmh 29.66 in1004.4 mb 0.00 in0.0 mm 0.00 in0.0 mm 0.00 in0.0 mm
02:10 PM 47.3°F8.5°C 38.0°F3.3°C 70% 8.2 mph WSW13.2 kmh WSW 11.8 mph19.0 kmh 29.67 in1004.7 mb 0.00 in0.0 mm 0.00 in0.0 mm 0.00 in0.0 mm
02:20 PM 47.1°F8.4°C 37.8°F3.2°C 70% 8.3 mph WSW13.4 kmh WSW 9.1 mph14.6 kmh 29.68 in1005.1 mb 0.00 in0.0 mm 0.00 in0.0 mm 0.00 in0.0 mm
02:30 PM 46.9°F8.3°C 37.7°F3.2°C 70% 8.2 mph SW13.2 kmh SW 8.4 mph13.5 kmh 29.68 in1005.1 mb 0.00 in0.0 mm 0.00 in0.0 mm 0.00 in0.0 mm
02:40 PM 46.9°F8.3°C 37.7°F3.2°C 70% 7.2 mph WSW11.6 kmh WSW 8.4 mph13.5 kmh 29.69 in1005.4 mb 0.00 in0.0 mm 0.00 in0.0 mm 0.00 in0.0 mm
02:50 PM 46.9°F8.3°C 37.7°F3.2°C 70% 7.8 mph SE12.6 kmh SE 8.4 mph13.5 kmh 29.69 in1005.4 mb 0.00 in0.0 mm 0.00 in0.0 mm 0.00 in0.0 mm
03:00 PM 46.8°F8.2°C 37.5°F3.1°C 70% 8.6 mph WSW13.8 kmh WSW 9.1 mph14.6 kmh 29.69 in1005.4 mb 0.00 in0.0 mm 0.00 in0.0 mm 0.00 in0.0 mm
03:10 PM 46.9°F8.3°C 37.7°F3.2°C 70% 6.9 mph SW11.1 kmh SW 7.6 mph12.2 kmh 29.69 in1005.4 mb 0.00 in0.0 mm 0.00 in0.0 mm 0.00 in0.0 mm
03:20 PM 46.6°F8.1°C 37.3°F2.9°C 70% 6.8 mph WSW10.9 kmh WSW 7.6 mph12.2 kmh 29.69 in1005.4 mb 0.00 in0.0 mm 0.00 in0.0 mm 0.00 in0.0 mm
03:30 PM 46.4°F8.0°C 37.1°F2.8°C 70% 7.1 mph WSW11.4 kmh WSW 9.1 mph14.6 kmh 29.70 in1005.8 mb 0.00 in0.0 mm 0.00 in0.0 mm 0.00 in0.0 mm
03:40 PM 45.9°F7.7°C 36.6°F2.6°C 70% 5.4 mph SSW8.7 kmh SSW 5.9 mph9.5 kmh 29.70 in1005.8 mb 0.00 in0.0 mm 0.00 in0.0 mm 0.00 in0.0 mm
03:50 PM 45.7°F7.6°C 36.5°F2.5°C 70% 6.9 mph SW11.1 kmh SW 10.1 mph16.3 kmh 29.71 in1006.1 mb 0.00 in0.0 mm 0.00 in0.0 mm 0.00 in0.0 mm
04:00 PM 45.3°F7.4°C 36.1°F2.3°C 70% 6.2 mph S10.0 kmh S 7.6 mph12.2 kmh 29.70 in1005.8 mb 0.00 in0.0 mm 0.00 in0.0 mm 0.00 in0.0 mm
04:10 PM 44.8°F7.1°C 35.9°F2.2°C 71% 5.1 mph WSW8.2 kmh WSW 6.6 mph10.6 kmh 29.71 in1006.1 mb 0.00 in0.0 mm 0.00 in0.0 mm 0.00 in0.0 mm
04:20 PM 44.6°F7.0°C 35.8°F2.1°C 71% 4.3 mph SW6.9 kmh SW 4.9 mph7.9 kmh 29.71 in1006.1 mb 0.00 in0.0 mm 0.00 in0.0 mm 0.00 in0.0 mm
04:30 PM 44.2°F6.8°C 37.2°F2.9°C 76% 4.0 mph W6.4 kmh W 5.9 mph9.5 kmh 29.71 in1006.1 mb 0.00 in0.0 mm 0.00 in0.0 mm 0.00 in0.0 mm
04:40 PM 44.1°F6.7°C 37.3°F2.9°C 77% 4.9 mph WSW7.9 kmh WSW 7.6 mph12.2 kmh 29.71 in1006.1 mb 0.00 in0.0 mm 0.00 in0.0 mm 0.00 in0.0 mm
04:50 PM 43.9°F6.6°C 37.5°F3.1°C 78% 5.8 mph W9.3 kmh W 9.1 mph14.6 kmh 29.71 in1006.1 mb 0.00 in0.0 mm 0.00 in0.0 mm 0.00 in0.0 mm
05:00 PM 44.1°F6.7°C 37.6°F3.1°C 78% 7.6 mph SW12.2 kmh SW 8.4 mph13.5 kmh 29.71 in1006.1 mb 0.00 in0.0 mm 0.00 in0.0 mm 0.00 in0.0 mm
05:10 PM 44.1°F6.7°C 37.6°F3.1°C 78% 6.8 mph S10.9 kmh S 8.4 mph13.5 kmh 29.72 in1006.4 mb 0.00 in0.0 mm 0.00 in0.0 mm 0.00 in0.0 mm
05:20 PM 44.1°F6.7°C 37.6°F3.1°C 78% 6.1 mph SW9.8 kmh SW 7.6 mph12.2 kmh 29.73 in1006.8 mb 0.00 in0.0 mm 0.00 in0.0 mm 0.00 in0.0 mm
05:30 PM 43.9°F6.6°C 37.5°F3.1°C 78% 7.0 mph W11.3 kmh W 8.4 mph13.5 kmh 29.73 in1006.8 mb 0.00 in0.0 mm 0.00 in0.0 mm 0.00 in0.0 mm
05:40 PM 43.9°F6.6°C 37.5°F3.1°C 78% 7.7 mph W12.4 kmh W 8.4 mph13.5 kmh 29.74 in1007.1 mb 0.00 in0.0 mm 0.00 in0.0 mm 0.00 in0.0 mm
05:50 PM 43.9°F6.6°C 37.5°F3.1°C 78% 7.2 mph WSW11.6 kmh WSW 7.6 mph12.2 kmh 29.74 in1007.1 mb 0.00 in0.0 mm 0.00 in0.0 mm 0.00 in0.0 mm
06:00 PM 43.9°F6.6°C 37.5°F3.1°C 78% 6.8 mph WSW10.9 kmh WSW 7.6 mph12.2 kmh 29.75 in1007.5 mb 0.00 in0.0 mm 0.00 in0.0 mm 0.00 in0.0 mm
06:10 PM 43.7°F6.5°C 37.3°F2.9°C 78% 6.1 mph S9.8 kmh S 7.6 mph12.2 kmh 29.74 in1007.1 mb 0.00 in0.0 mm 0.00 in0.0 mm 0.00 in0.0 mm
06:20 PM 43.7°F6.5°C 37.3°F2.9°C 78% 6.6 mph SSW10.6 kmh SSW 6.6 mph10.6 kmh 29.74 in1007.1 mb 0.00 in0.0 mm 0.00 in0.0 mm 0.00 in0.0 mm
06:30 PM 43.9°F6.6°C 37.5°F3.1°C 78% 8.3 mph SSW13.4 kmh SSW 10.1 mph16.3 kmh 29.75 in1007.5 mb 0.00 in0.0 mm 0.00 in0.0 mm 0.00 in0.0 mm
06:40 PM 44.1°F6.7°C 37.6°F3.1°C 78% 8.5 mph SW13.7 kmh SW 9.1 mph14.6 kmh 29.75 in1007.5 mb 0.00 in0.0 mm 0.00 in0.0 mm 0.00 in0.0 mm
06:50 PM 44.1°F6.7°C 37.3°F2.9°C 77% 10.4 mph SW16.7 kmh SW 11.8 mph19.0 kmh 29.75 in1007.5 mb 0.00 in0.0 mm 0.00 in0.0 mm 0.00 in0.0 mm
07:00 PM 44.1°F6.7°C 37.3°F2.9°C 77% 9.2 mph SSE14.8 kmh SSE 9.1 mph14.6 kmh 29.75 in1007.5 mb 0.00 in0.0 mm 0.00 in0.0 mm 0.00 in0.0 mm
07:10 PM 44.2°F6.8°C 37.5°F3.1°C 77% 10.0 mph SSW16.1 kmh SSW 10.1 mph16.3 kmh 29.75 in1007.5 mb 0.00 in0.0 mm 0.00 in0.0 mm 0.00 in0.0 mm
07:20 PM 44.4°F6.9°C 37.3°F2.9°C 76% 8.7 mph SW14.0 kmh SW 10.1 mph16.3 kmh 29.75 in1007.5 mb 0.00 in0.0 mm 0.00 in0.0 mm 0.00 in0.0 mm
07:30 PM 44.2°F6.8°C 37.2°F2.9°C 76% 6.6 mph SW10.6 kmh SW 10.1 mph16.3 kmh 29.76 in1007.8 mb 0.00 in0.0 mm 0.00 in0.0 mm 0.00 in0.0 mm
07:40 PM 43.9°F6.6°C 36.8°F2.7°C 76% 6.5 mph WSW10.5 kmh WSW 7.6 mph12.2 kmh 29.75 in1007.5 mb 0.00 in0.0 mm 0.00 in0.0 mm 0.00 in0.0 mm
07:50 PM 43.2°F6.2°C 36.4°F2.4°C 77% 5.8 mph S9.3 kmh S 7.6 mph12.2 kmh 29.76 in1007.8 mb 0.00 in0.0 mm 0.00 in0.0 mm 0.00 in0.0 mm
08:00 PM 42.6°F5.9°C 36.6°F2.6°C 79% 6.7 mph SW10.8 kmh SW 7.6 mph12.2 kmh 29.76 in1007.8 mb 0.00 in0.0 mm 0.00 in0.0 mm 0.00 in0.0 mm
08:10 PM 42.3°F5.7°C 36.5°F2.5°C 80% 5.8 mph SW9.3 kmh SW 5.9 mph9.5 kmh 29.75 in1007.5 mb 0.00 in0.0 mm 0.00 in0.0 mm 0.00 in0.0 mm
08:20 PM 41.9°F5.5°C 36.2°F2.3°C 80% 6.6 mph SSW10.6 kmh SSW 6.6 mph10.6 kmh 29.75 in1007.5 mb 0.00 in0.0 mm 0.00 in0.0 mm 0.00 in0.0 mm
08:30 PM 41.9°F5.5°C 36.5°F2.5°C 81% 6.9 mph SW11.1 kmh SW 7.6 mph12.2 kmh 29.75 in1007.5 mb 0.00 in0.0 mm 0.00 in0.0 mm 0.00 in0.0 mm
08:40 PM 41.7°F5.4°C 36.3°F2.4°C 81% 5.5 mph SSE8.9 kmh SSE 8.4 mph13.5 kmh 29.76 in1007.8 mb 0.00 in0.0 mm 0.00 in0.0 mm 0.00 in0.0 mm
08:50 PM 41.7°F5.4°C 36.3°F2.4°C 81% 5.6 mph S9.0 kmh S 8.4 mph13.5 kmh 29.76 in1007.8 mb 0.00 in0.0 mm 0.00 in0.0 mm 0.00 in0.0 mm
09:00 PM 41.9°F5.5°C 36.8°F2.7°C 82% 4.4 mph SW7.1 kmh SW 5.9 mph9.5 kmh 29.76 in1007.8 mb 0.00 in0.0 mm 0.00 in0.0 mm 0.00 in0.0 mm
09:10 PM 41.9°F5.5°C 36.8°F2.7°C 82% 4.3 mph S6.9 kmh S 4.2 mph6.8 kmh 29.76 in1007.8 mb 0.00 in0.0 mm 0.00 in0.0 mm 0.00 in0.0 mm
09:20 PM 42.3°F5.7°C 37.2°F2.9°C 82% 6.9 mph SW11.1 kmh SW 7.6 mph12.2 kmh 29.76 in1007.8 mb 0.00 in0.0 mm 0.00 in0.0 mm 0.00 in0.0 mm
09:30 PM 42.3°F5.7°C 36.8°F2.7°C 81% 6.7 mph SW10.8 kmh SW 9.1 mph14.6 kmh 29.76 in1007.8 mb 0.00 in0.0 mm 0.00 in0.0 mm 0.00 in0.0 mm
09:40 PM 42.1°F5.6°C 36.7°F2.6°C 81% 8.1 mph SSW13.0 kmh SSW 8.4 mph13.5 kmh 29.75 in1007.5 mb 0.00 in0.0 mm 0.00 in0.0 mm 0.00 in0.0 mm
09:50 PM 41.9°F5.5°C 36.5°F2.5°C 81% 6.6 mph S10.6 kmh S 6.6 mph10.6 kmh 29.75 in1007.5 mb 0.00 in0.0 mm 0.00 in0.0 mm 0.00 in0.0 mm
10:00 PM 41.9°F5.5°C 36.5°F2.5°C 81% 6.7 mph SSW10.8 kmh SSW 7.6 mph12.2 kmh 29.76 in1007.8 mb 0.00 in0.0 mm 0.00 in0.0 mm 0.00 in0.0 mm
10:10 PM 41.9°F5.5°C 36.5°F2.5°C 81% 7.5 mph SSW12.1 kmh SSW 7.6 mph12.2 kmh 29.75 in1007.5 mb 0.00 in0.0 mm 0.00 in0.0 mm 0.00 in0.0 mm
10:20 PM 42.1°F5.6°C 36.7°F2.6°C 81% 6.6 mph SSW10.6 kmh SSW 7.6 mph12.2 kmh 29.75 in1007.5 mb 0.00 in0.0 mm 0.00 in0.0 mm 0.00 in0.0 mm
10:30 PM 41.9°F5.5°C 36.5°F2.5°C 81% 7.2 mph SSW11.6 kmh SSW 9.1 mph14.6 kmh 29.75 in1007.5 mb 0.00 in0.0 mm 0.00 in0.0 mm 0.00 in0.0 mm
10:40 PM 41.7°F5.4°C 36.3°F2.4°C 81% 7.2 mph SSW11.6 kmh SSW 7.6 mph12.2 kmh 29.75 in1007.5 mb 0.00 in0.0 mm 0.00 in0.0 mm 0.00 in0.0 mm
10:50 PM 41.7°F5.4°C 36.3°F2.4°C 81% 5.6 mph W9.0 kmh W 5.9 mph9.5 kmh 29.75 in1007.5 mb 0.00 in0.0 mm 0.00 in0.0 mm 0.00 in0.0 mm
11:00 PM 41.4°F5.2°C 36.3°F2.4°C 82% 4.8 mph SSW7.7 kmh SSW 6.6 mph10.6 kmh 29.76 in1007.8 mb 0.00 in0.0 mm 0.00 in0.0 mm 0.00 in0.0 mm
11:10 PM 41.4°F5.2°C 36.3°F2.4°C 82% 5.0 mph SSW8.0 kmh SSW 6.6 mph10.6 kmh 29.76 in1007.8 mb 0.00 in0.0 mm 0.00 in0.0 mm 0.00 in0.0 mm
11:20 PM 41.2°F5.1°C 36.1°F2.3°C 82% 3.8 mph WSW6.1 kmh WSW 4.9 mph7.9 kmh 29.76 in1007.8 mb 0.00 in0.0 mm 0.00 in0.0 mm 0.00 in0.0 mm
11:30 PM 41.4°F5.2°C 36.6°F2.6°C 83% 3.5 mph SW5.6 kmh SW 4.9 mph7.9 kmh 29.75 in1007.5 mb 0.00 in0.0 mm 0.00 in0.0 mm 0.00 in0.0 mm
11:40 PM 41.4°F5.2°C 36.6°F2.6°C 83% 3.5 mph SW5.6 kmh SW 4.2 mph6.8 kmh 29.75 in1007.5 mb 0.00 in0.0 mm 0.00 in0.0 mm 0.00 in0.0 mm
11:50 PM 41.4°F5.2°C 36.9°F2.7°C 84% 4.7 mph SSW7.6 kmh SSW 4.9 mph7.9 kmh 29.75 in1007.5 mb 0.00 in0.0 mm 0.00 in0.0 mm 0.00 in0.0 mm